sensor_id;sensor_type;location;lat;lon;timestamp;P1;durP1;ratioP1;P2;durP2;ratioP2
61393;SDS011;48555;50.952;-0.120;2023-04-03T00:01:02;5.43;;;1.80;;
61393;SDS011;48555;50.952;-0.120;2023-04-03T00:03:27;6.55;;;1.90;;
61393;SDS011;48555;50.952;-0.120;2023-04-03T00:05:53;6.65;;;2.15;;
61393;SDS011;48555;50.952;-0.120;2023-04-03T00:08:18;5.50;;;1.70;;
61393;SDS011;48555;50.952;-0.120;2023-04-03T00:10:44;6.53;;;2.03;;
61393;SDS011;48555;50.952;-0.120;2023-04-03T00:13:09;5.65;;;1.90;;
61393;SDS011;48555;50.952;-0.120;2023-04-03T00:15:35;8.68;;;2.00;;
61393;SDS011;48555;50.952;-0.120;2023-04-03T00:18:02;5.28;;;2.00;;
61393;SDS011;48555;50.952;-0.120;2023-04-03T00:20:28;5.95;;;1.88;;
61393;SDS011;48555;50.952;-0.120;2023-04-03T00:22:54;6.10;;;1.90;;
61393;SDS011;48555;50.952;-0.120;2023-04-03T00:25:19;8.43;;;2.20;;
61393;SDS011;48555;50.952;-0.120;2023-04-03T00:27:45;4.25;;;1.92;;
61393;SDS011;48555;50.952;-0.120;2023-04-03T00:30:11;5.18;;;1.65;;
61393;SDS011;48555;50.952;-0.120;2023-04-03T00:32:39;7.03;;;2.03;;
61393;SDS011;48555;50.952;-0.120;2023-04-03T00:35:05;7.85;;;1.88;;
61393;SDS011;48555;50.952;-0.120;2023-04-03T00:37:31;6.75;;;1.77;;
61393;SDS011;48555;50.952;-0.120;2023-04-03T00:39:57;5.43;;;1.70;;
61393;SDS011;48555;50.952;-0.120;2023-04-03T00:42:22;5.68;;;2.00;;
61393;SDS011;48555;50.952;-0.120;2023-04-03T00:47:14;6.25;;;1.77;;
61393;SDS011;48555;50.952;-0.120;2023-04-03T00:49:42;8.45;;;2.10;;
61393;SDS011;48555;50.952;-0.120;2023-04-03T00:52:10;7.30;;;2.17;;
61393;SDS011;48555;50.952;-0.120;2023-04-03T00:54:40;6.78;;;1.90;;
61393;SDS011;48555;50.952;-0.120;2023-04-03T00:57:07;6.00;;;1.95;;
61393;SDS011;48555;50.952;-0.120;2023-04-03T00:59:35;10.48;;;2.60;;
61393;SDS011;48555;50.952;-0.120;2023-04-03T01:02:02;7.40;;;2.05;;
61393;SDS011;48555;50.952;-0.120;2023-04-03T01:04:28;7.45;;;1.55;;
61393;SDS011;48555;50.952;-0.120;2023-04-03T01:06:56;6.13;;;1.95;;
61393;SDS011;48555;50.952;-0.120;2023-04-03T01:09:26;4.57;;;1.58;;
61393;SDS011;48555;50.952;-0.120;2023-04-03T01:11:52;9.32;;;1.98;;
61393;SDS011;48555;50.952;-0.120;2023-04-03T01:14:18;6.20;;;1.60;;
61393;SDS011;48555;50.952;-0.120;2023-04-03T01:16:50;5.63;;;1.75;;
61393;SDS011;48555;50.952;-0.120;2023-04-03T01:19:17;6.80;;;1.90;;
61393;SDS011;48555;50.952;-0.120;2023-04-03T01:22:05;4.97;;;1.70;;
61393;SDS011;48555;50.952;-0.120;2023-04-03T01:24:41;3.78;;;1.70;;
61393;SDS011;48555;50.952;-0.120;2023-04-03T01:27:07;5.78;;;1.80;;
61393;SDS011;48555;50.952;-0.120;2023-04-03T01:29:35;6.93;;;2.00;;
61393;SDS011;48555;50.952;-0.120;2023-04-03T01:32:01;4.97;;;1.90;;
61393;SDS011;48555;50.952;-0.120;2023-04-03T01:34:28;4.35;;;1.60;;
61393;SDS011;48555;50.952;-0.120;2023-04-03T01:36:55;5.65;;;1.88;;
61393;SDS011;48555;50.952;-0.120;2023-04-03T01:39:20;4.13;;;1.67;;
61393;SDS011;48555;50.952;-0.120;2023-04-03T01:41:46;5.28;;;1.80;;
61393;SDS011;48555;50.952;-0.120;2023-04-03T01:44:12;5.30;;;1.90;;
61393;SDS011;48555;50.952;-0.120;2023-04-03T01:46:38;5.13;;;1.90;;
61393;SDS011;48555;50.952;-0.120;2023-04-03T01:49:04;4.72;;;1.50;;
61393;SDS011;48555;50.952;-0.120;2023-04-03T01:51:29;6.70;;;1.73;;
61393;SDS011;48555;50.952;-0.120;2023-04-03T01:53:55;5.63;;;1.75;;
61393;SDS011;48555;50.952;-0.120;2023-04-03T01:56:21;7.93;;;2.08;;
61393;SDS011;48555;50.952;-0.120;2023-04-03T01:58:47;6.10;;;1.50;;
61393;SDS011;48555;50.952;-0.120;2023-04-03T02:01:12;7.13;;;1.95;;
61393;SDS011;48555;50.952;-0.120;2023-04-03T02:03:37;4.20;;;1.50;;
61393;SDS011;48555;50.952;-0.120;2023-04-03T02:06:03;4.10;;;1.55;;
61393;SDS011;48555;50.952;-0.120;2023-04-03T02:08:28;3.20;;;1.48;;
61393;SDS011;48555;50.952;-0.120;2023-04-03T02:10:54;4.80;;;1.52;;
61393;SDS011;48555;50.952;-0.120;2023-04-03T02:13:19;4.32;;;1.95;;
61393;SDS011;48555;50.952;-0.120;2023-04-03T02:15:45;7.63;;;1.67;;
61393;SDS011;48555;50.952;-0.120;2023-04-03T02:18:11;6.30;;;1.90;;
61393;SDS011;48555;50.952;-0.120;2023-04-03T02:20:37;5.95;;;2.08;;
61393;SDS011;48555;50.952;-0.120;2023-04-03T02:23:02;5.80;;;1.48;;
61393;SDS011;48555;50.952;-0.120;2023-04-03T02:25:30;10.77;;;2.03;;
61393;SDS011;48555;50.952;-0.120;2023-04-03T02:27:55;7.35;;;1.80;;
61393;SDS011;48555;50.952;-0.120;2023-04-03T02:30:21;6.22;;;1.90;;
61393;SDS011;48555;50.952;-0.120;2023-04-03T02:32:46;4.43;;;1.52;;
61393;SDS011;48555;50.952;-0.120;2023-04-03T02:35:11;5.07;;;1.75;;
61393;SDS011;48555;50.952;-0.120;2023-04-03T02:37:37;6.57;;;1.92;;
61393;SDS011;48555;50.952;-0.120;2023-04-03T02:40:03;6.63;;;1.55;;
61393;SDS011;48555;50.952;-0.120;2023-04-03T02:42:30;7.10;;;1.60;;
61393;SDS011;48555;50.952;-0.120;2023-04-03T02:44:55;6.65;;;1.70;;
61393;SDS011;48555;50.952;-0.120;2023-04-03T02:47:20;3.53;;;1.63;;
61393;SDS011;48555;50.952;-0.120;2023-04-03T02:49:46;5.40;;;1.70;;
61393;SDS011;48555;50.952;-0.120;2023-04-03T02:52:12;6.25;;;1.95;;
61393;SDS011;48555;50.952;-0.120;2023-04-03T02:54:38;6.10;;;2.22;;
61393;SDS011;48555;50.952;-0.120;2023-04-03T02:57:03;6.68;;;1.98;;
61393;SDS011;48555;50.952;-0.120;2023-04-03T02:59:29;3.40;;;1.60;;
61393;SDS011;48555;50.952;-0.120;2023-04-03T03:01:54;4.03;;;1.75;;
61393;SDS011;48555;50.952;-0.120;2023-04-03T03:04:20;5.78;;;2.17;;
61393;SDS011;48555;50.952;-0.120;2023-04-03T03:06:46;5.95;;;1.77;;
61393;SDS011;48555;50.952;-0.120;2023-04-03T03:09:12;7.28;;;2.42;;
61393;SDS011;48555;50.952;-0.120;2023-04-03T03:11:38;4.20;;;1.83;;
61393;SDS011;48555;50.952;-0.120;2023-04-03T03:14:04;6.20;;;2.08;;
61393;SDS011;48555;50.952;-0.120;2023-04-03T03:16:29;4.03;;;1.73;;
61393;SDS011;48555;50.952;-0.120;2023-04-03T03:18:55;4.85;;;1.67;;
61393;SDS011;48555;50.952;-0.120;2023-04-03T03:21:20;3.47;;;1.70;;
61393;SDS011;48555;50.952;-0.120;2023-04-03T03:23:46;6.47;;;2.05;;
61393;SDS011;48555;50.952;-0.120;2023-04-03T03:26:11;6.32;;;2.25;;
61393;SDS011;48555;50.952;-0.120;2023-04-03T03:28:37;8.35;;;2.15;;
61393;SDS011;48555;50.952;-0.120;2023-04-03T03:31:04;9.10;;;2.65;;
61393;SDS011;48555;50.952;-0.120;2023-04-03T03:33:30;6.60;;;2.08;;
61393;SDS011;48555;50.952;-0.120;2023-04-03T03:35:56;5.55;;;1.83;;
61393;SDS011;48555;50.952;-0.120;2023-04-03T03:38:22;10.02;;;2.15;;
61393;SDS011;48555;50.952;-0.120;2023-04-03T03:40:48;6.45;;;1.80;;
61393;SDS011;48555;50.952;-0.120;2023-04-03T03:43:15;6.07;;;1.83;;
61393;SDS011;48555;50.952;-0.120;2023-04-03T03:45:40;4.15;;;1.77;;
61393;SDS011;48555;50.952;-0.120;2023-04-03T03:48:06;6.30;;;1.90;;
61393;SDS011;48555;50.952;-0.120;2023-04-03T03:50:31;6.68;;;2.38;;
61393;SDS011;48555;50.952;-0.120;2023-04-03T03:52:57;4.25;;;2.00;;
61393;SDS011;48555;50.952;-0.120;2023-04-03T03:55:22;5.10;;;1.75;;
61393;SDS011;48555;50.952;-0.120;2023-04-03T03:57:47;4.13;;;1.60;;
61393;SDS011;48555;50.952;-0.120;2023-04-03T04:00:13;2.85;;;1.60;;
61393;SDS011;48555;50.952;-0.120;2023-04-03T04:02:38;4.00;;;1.90;;
61393;SDS011;48555;50.952;-0.120;2023-04-03T04:05:04;6.13;;;2.15;;
61393;SDS011;48555;50.952;-0.120;2023-04-03T04:07:29;5.05;;;1.65;;
61393;SDS011;48555;50.952;-0.120;2023-04-03T04:09:55;6.95;;;1.88;;
61393;SDS011;48555;50.952;-0.120;2023-04-03T04:12:20;4.30;;;1.70;;
61393;SDS011;48555;50.952;-0.120;2023-04-03T04:14:46;5.20;;;1.73;;
61393;SDS011;48555;50.952;-0.120;2023-04-03T04:17:12;2.42;;;1.45;;
61393;SDS011;48555;50.952;-0.120;2023-04-03T04:19:38;3.03;;;1.42;;
61393;SDS011;48555;50.952;-0.120;2023-04-03T04:22:04;5.25;;;1.50;;
61393;SDS011;48555;50.952;-0.120;2023-04-03T04:24:29;8.07;;;2.03;;
61393;SDS011;48555;50.952;-0.120;2023-04-03T04:26:55;6.32;;;1.92;;
61393;SDS011;48555;50.952;-0.120;2023-04-03T04:29:20;6.20;;;1.80;;
61393;SDS011;48555;50.952;-0.120;2023-04-03T04:31:45;5.05;;;1.90;;
61393;SDS011;48555;50.952;-0.120;2023-04-03T04:34:11;5.60;;;1.90;;
61393;SDS011;48555;50.952;-0.120;2023-04-03T04:36:37;5.68;;;1.90;;
61393;SDS011;48555;50.952;-0.120;2023-04-03T04:39:03;7.15;;;1.90;;
61393;SDS011;48555;50.952;-0.120;2023-04-03T04:41:28;7.80;;;2.08;;
61393;SDS011;48555;50.952;-0.120;2023-04-03T04:43:54;4.47;;;1.77;;
61393;SDS011;48555;50.952;-0.120;2023-04-03T04:46:19;5.45;;;2.00;;
61393;SDS011;48555;50.952;-0.120;2023-04-03T04:48:45;5.55;;;2.15;;
61393;SDS011;48555;50.952;-0.120;2023-04-03T04:51:10;3.95;;;1.70;;
61393;SDS011;48555;50.952;-0.120;2023-04-03T04:53:37;6.80;;;1.95;;
61393;SDS011;48555;50.952;-0.120;2023-04-03T04:56:02;4.97;;;1.83;;
61393;SDS011;48555;50.952;-0.120;2023-04-03T04:58:28;4.35;;;1.80;;
61393;SDS011;48555;50.952;-0.120;2023-04-03T05:01:03;5.70;;;1.80;;
61393;SDS011;48555;50.952;-0.120;2023-04-03T05:03:33;6.43;;;1.80;;
61393;SDS011;48555;50.952;-0.120;2023-04-03T05:05:59;5.47;;;1.52;;
61393;SDS011;48555;50.952;-0.120;2023-04-03T05:08:25;5.63;;;1.90;;
61393;SDS011;48555;50.952;-0.120;2023-04-03T05:10:50;5.75;;;2.00;;
61393;SDS011;48555;50.952;-0.120;2023-04-03T05:13:16;6.30;;;1.88;;
61393;SDS011;48555;50.952;-0.120;2023-04-03T05:15:42;2.95;;;1.60;;
61393;SDS011;48555;50.952;-0.120;2023-04-03T05:18:07;4.88;;;1.92;;
61393;SDS011;48555;50.952;-0.120;2023-04-03T05:20:33;5.28;;;1.73;;
61393;SDS011;48555;50.952;-0.120;2023-04-03T05:22:58;5.10;;;1.83;;
61393;SDS011;48555;50.952;-0.120;2023-04-03T05:25:24;5.03;;;1.90;;
61393;SDS011;48555;50.952;-0.120;2023-04-03T05:27:50;5.45;;;1.65;;
61393;SDS011;48555;50.952;-0.120;2023-04-03T05:30:16;5.70;;;2.05;;
61393;SDS011;48555;50.952;-0.120;2023-04-03T05:32:42;4.20;;;1.75;;
61393;SDS011;48555;50.952;-0.120;2023-04-03T05:35:08;4.95;;;1.90;;
61393;SDS011;48555;50.952;-0.120;2023-04-03T05:37:34;4.10;;;2.08;;
61393;SDS011;48555;50.952;-0.120;2023-04-03T05:39:59;4.45;;;1.80;;
61393;SDS011;48555;50.952;-0.120;2023-04-03T05:42:25;4.35;;;1.90;;
61393;SDS011;48555;50.952;-0.120;2023-04-03T05:44:50;5.97;;;1.95;;
61393;SDS011;48555;50.952;-0.120;2023-04-03T05:47:16;5.00;;;1.90;;
61393;SDS011;48555;50.952;-0.120;2023-04-03T05:49:42;9.55;;;2.20;;
61393;SDS011;48555;50.952;-0.120;2023-04-03T05:52:13;6.20;;;1.92;;
61393;SDS011;48555;50.952;-0.120;2023-04-03T05:54:46;4.25;;;1.67;;
61393;SDS011;48555;50.952;-0.120;2023-04-03T05:57:13;6.80;;;1.83;;
61393;SDS011;48555;50.952;-0.120;2023-04-03T05:59:40;3.65;;;1.95;;
61393;SDS011;48555;50.952;-0.120;2023-04-03T06:02:06;10.70;;;2.00;;
61393;SDS011;48555;50.952;-0.120;2023-04-03T06:04:32;4.88;;;1.98;;
61393;SDS011;48555;50.952;-0.120;2023-04-03T06:06:57;7.75;;;2.28;;
61393;SDS011;48555;50.952;-0.120;2023-04-03T06:09:25;4.00;;;1.80;;
61393;SDS011;48555;50.952;-0.120;2023-04-03T06:11:52;10.10;;;3.35;;
61393;SDS011;48555;50.952;-0.120;2023-04-03T06:14:18;9.18;;;2.25;;
61393;SDS011;48555;50.952;-0.120;2023-04-03T06:16:44;4.40;;;2.20;;
61393;SDS011;48555;50.952;-0.120;2023-04-03T06:19:10;7.53;;;2.35;;
61393;SDS011;48555;50.952;-0.120;2023-04-03T06:21:36;7.32;;;2.47;;
61393;SDS011;48555;50.952;-0.120;2023-04-03T06:24:05;5.53;;;2.22;;
61393;SDS011;48555;50.952;-0.120;2023-04-03T06:26:31;3.72;;;1.90;;
61393;SDS011;48555;50.952;-0.120;2023-04-03T06:28:57;6.88;;;2.40;;
61393;SDS011;48555;50.952;-0.120;2023-04-03T06:31:22;5.82;;;2.10;;
61393;SDS011;48555;50.952;-0.120;2023-04-03T06:33:47;6.97;;;2.30;;
61393;SDS011;48555;50.952;-0.120;2023-04-03T06:36:13;5.47;;;2.47;;
61393;SDS011;48555;50.952;-0.120;2023-04-03T06:38:38;6.15;;;2.20;;
61393;SDS011;48555;50.952;-0.120;2023-04-03T06:41:04;4.78;;;2.40;;
61393;SDS011;48555;50.952;-0.120;2023-04-03T06:43:29;5.28;;;2.35;;
61393;SDS011;48555;50.952;-0.120;2023-04-03T06:45:56;8.48;;;2.25;;
61393;SDS011;48555;50.952;-0.120;2023-04-03T06:48:21;7.43;;;2.38;;
61393;SDS011;48555;50.952;-0.120;2023-04-03T06:50:47;8.25;;;2.22;;
61393;SDS011;48555;50.952;-0.120;2023-04-03T06:53:12;6.25;;;2.42;;
61393;SDS011;48555;50.952;-0.120;2023-04-03T06:55:38;7.45;;;2.42;;
61393;SDS011;48555;50.952;-0.120;2023-04-03T06:58:03;5.97;;;2.60;;
61393;SDS011;48555;50.952;-0.120;2023-04-03T07:00:29;7.78;;;3.00;;
61393;SDS011;48555;50.952;-0.120;2023-04-03T07:02:55;6.38;;;2.45;;
61393;SDS011;48555;50.952;-0.120;2023-04-03T07:05:22;7.30;;;2.33;;
61393;SDS011;48555;50.952;-0.120;2023-04-03T07:07:48;7.53;;;2.50;;
61393;SDS011;48555;50.952;-0.120;2023-04-03T07:10:14;9.73;;;3.30;;
61393;SDS011;48555;50.952;-0.120;2023-04-03T07:12:40;7.82;;;3.00;;
61393;SDS011;48555;50.952;-0.120;2023-04-03T07:15:06;6.90;;;2.40;;
61393;SDS011;48555;50.952;-0.120;2023-04-03T07:17:32;6.15;;;2.78;;
61393;SDS011;48555;50.952;-0.120;2023-04-03T07:19:57;7.30;;;2.83;;
61393;SDS011;48555;50.952;-0.120;2023-04-03T07:22:22;6.88;;;2.70;;
61393;SDS011;48555;50.952;-0.120;2023-04-03T07:24:48;12.43;;;3.05;;
61393;SDS011;48555;50.952;-0.120;2023-04-03T07:27:13;6.28;;;3.00;;
61393;SDS011;48555;50.952;-0.120;2023-04-03T07:29:39;9.52;;;3.30;;
61393;SDS011;48555;50.952;-0.120;2023-04-03T07:32:04;9.70;;;3.08;;
61393;SDS011;48555;50.952;-0.120;2023-04-03T07:34:30;7.97;;;3.03;;
61393;SDS011;48555;50.952;-0.120;2023-04-03T07:36:57;6.97;;;2.30;;
61393;SDS011;48555;50.952;-0.120;2023-04-03T07:39:23;10.50;;;2.83;;
61393;SDS011;48555;50.952;-0.120;2023-04-03T07:41:48;8.15;;;2.85;;
61393;SDS011;48555;50.952;-0.120;2023-04-03T07:44:13;7.80;;;2.83;;
61393;SDS011;48555;50.952;-0.120;2023-04-03T07:46:39;8.98;;;2.80;;
61393;SDS011;48555;50.952;-0.120;2023-04-03T07:49:05;8.27;;;2.90;;
61393;SDS011;48555;50.952;-0.120;2023-04-03T07:51:31;11.23;;;3.25;;
61393;SDS011;48555;50.952;-0.120;2023-04-03T07:53:56;7.07;;;2.80;;
61393;SDS011;48555;50.952;-0.120;2023-04-03T07:56:23;6.15;;;2.58;;
61393;SDS011;48555;50.952;-0.120;2023-04-03T07:58:50;12.75;;;3.10;;
61393;SDS011;48555;50.952;-0.120;2023-04-03T08:01:15;7.82;;;2.60;;
61393;SDS011;48555;50.952;-0.120;2023-04-03T08:03:41;12.95;;;3.22;;
61393;SDS011;48555;50.952;-0.120;2023-04-03T08:06:07;6.18;;;2.70;;
61393;SDS011;48555;50.952;-0.120;2023-04-03T08:08:33;8.82;;;2.78;;
61393;SDS011;48555;50.952;-0.120;2023-04-03T08:10:59;10.32;;;3.25;;
61393;SDS011;48555;50.952;-0.120;2023-04-03T08:13:27;11.48;;;3.00;;
61393;SDS011;48555;50.952;-0.120;2023-04-03T08:15:53;8.40;;;3.00;;
61393;SDS011;48555;50.952;-0.120;2023-04-03T08:18:18;8.10;;;2.85;;
61393;SDS011;48555;50.952;-0.120;2023-04-03T08:20:46;6.30;;;3.03;;
61393;SDS011;48555;50.952;-0.120;2023-04-03T08:23:12;8.20;;;3.00;;
61393;SDS011;48555;50.952;-0.120;2023-04-03T08:25:39;9.73;;;2.67;;
61393;SDS011;48555;50.952;-0.120;2023-04-03T08:28:05;7.25;;;2.88;;
61393;SDS011;48555;50.952;-0.120;2023-04-03T08:30:31;10.48;;;2.83;;
61393;SDS011;48555;50.952;-0.120;2023-04-03T08:32:57;9.43;;;3.20;;
61393;SDS011;48555;50.952;-0.120;2023-04-03T08:35:26;6.93;;;3.20;;
61393;SDS011;48555;50.952;-0.120;2023-04-03T08:37:52;7.45;;;3.38;;
61393;SDS011;48555;50.952;-0.120;2023-04-03T08:40:17;6.60;;;3.10;;
61393;SDS011;48555;50.952;-0.120;2023-04-03T08:42:49;5.75;;;2.85;;
61393;SDS011;48555;50.952;-0.120;2023-04-03T08:45:25;11.85;;;3.33;;
61393;SDS011;48555;50.952;-0.120;2023-04-03T08:48:20;8.88;;;3.38;;
61393;SDS011;48555;50.952;-0.120;2023-04-03T08:50:53;9.30;;;3.45;;
61393;SDS011;48555;50.952;-0.120;2023-04-03T08:53:23;7.55;;;3.15;;
61393;SDS011;48555;50.952;-0.120;2023-04-03T08:55:53;9.02;;;3.28;;
61393;SDS011;48555;50.952;-0.120;2023-04-03T09:01:06;8.48;;;3.95;;
61393;SDS011;48555;50.952;-0.120;2023-04-03T09:03:41;9.18;;;4.63;;
61393;SDS011;48555;50.952;-0.120;2023-04-03T09:16:56;10.65;;;5.65;;
61393;SDS011;48555;50.952;-0.120;2023-04-03T09:21:56;8.93;;;5.78;;
61393;SDS011;48555;50.952;-0.120;2023-04-03T09:24:23;9.00;;;5.40;;
61393;SDS011;48555;50.952;-0.120;2023-04-03T09:26:51;9.10;;;5.45;;
61393;SDS011;48555;50.952;-0.120;2023-04-03T09:29:21;11.48;;;6.13;;
61393;SDS011;48555;50.952;-0.120;2023-04-03T09:31:50;9.85;;;5.97;;
61393;SDS011;48555;50.952;-0.120;2023-04-03T09:34:28;10.10;;;5.80;;
61393;SDS011;48555;50.952;-0.120;2023-04-03T09:36:58;8.02;;;5.72;;
61393;SDS011;48555;50.952;-0.120;2023-04-03T09:39:30;7.82;;;5.70;;
61393;SDS011;48555;50.952;-0.120;2023-04-03T09:42:00;9.85;;;6.25;;
61393;SDS011;48555;50.952;-0.120;2023-04-03T09:44:32;6.65;;;4.55;;
61393;SDS011;48555;50.952;-0.120;2023-04-03T09:47:18;6.95;;;5.05;;
61393;SDS011;48555;50.952;-0.120;2023-04-03T09:49:48;8.25;;;5.03;;
61393;SDS011;48555;50.952;-0.120;2023-04-03T09:52:23;7.80;;;5.43;;
61393;SDS011;48555;50.952;-0.120;2023-04-03T09:54:50;6.50;;;5.00;;
61393;SDS011;48555;50.952;-0.120;2023-04-03T09:57:16;7.80;;;5.03;;
61393;SDS011;48555;50.952;-0.120;2023-04-03T09:59:46;9.27;;;4.75;;
61393;SDS011;48555;50.952;-0.120;2023-04-03T10:02:30;6.72;;;4.70;;
61393;SDS011;48555;50.952;-0.120;2023-04-03T10:04:59;6.03;;;4.10;;
61393;SDS011;48555;50.952;-0.120;2023-04-03T10:07:30;8.23;;;4.45;;
61393;SDS011;48555;50.952;-0.120;2023-04-03T10:10:17;8.48;;;4.97;;
61393;SDS011;48555;50.952;-0.120;2023-04-03T10:12:45;7.45;;;4.47;;
61393;SDS011;48555;50.952;-0.120;2023-04-03T10:15:14;10.27;;;5.00;;
61393;SDS011;48555;50.952;-0.120;2023-04-03T10:17:51;10.65;;;4.65;;
61393;SDS011;48555;50.952;-0.120;2023-04-03T10:23:18;6.90;;;4.50;;
61393;SDS011;48555;50.952;-0.120;2023-04-03T10:31:13;8.32;;;4.63;;
61393;SDS011;48555;50.952;-0.120;2023-04-03T10:33:53;10.05;;;4.78;;
61393;SDS011;48555;50.952;-0.120;2023-04-03T10:39:22;9.00;;;4.53;;
61393;SDS011;48555;50.952;-0.120;2023-04-03T10:47:32;8.35;;;4.18;;
61393;SDS011;48555;50.952;-0.120;2023-04-03T10:52:57;6.32;;;4.20;;
61393;SDS011;48555;50.952;-0.120;2023-04-03T10:55:34;8.23;;;4.68;;
61393;SDS011;48555;50.952;-0.120;2023-04-03T10:58:06;8.07;;;4.88;;
61393;SDS011;48555;50.952;-0.120;2023-04-03T11:01:22;6.78;;;4.38;;
61393;SDS011;48555;50.952;-0.120;2023-04-03T11:03:53;7.38;;;4.38;;
61393;SDS011;48555;50.952;-0.120;2023-04-03T11:06:22;7.25;;;4.50;;
61393;SDS011;48555;50.952;-0.120;2023-04-03T11:08:53;8.57;;;4.90;;
61393;SDS011;48555;50.952;-0.120;2023-04-03T11:11:24;9.27;;;4.55;;
61393;SDS011;48555;50.952;-0.120;2023-04-03T11:16:28;8.02;;;3.95;;
61393;SDS011;48555;50.952;-0.120;2023-04-03T11:21:32;5.75;;;3.70;;
61393;SDS011;48555;50.952;-0.120;2023-04-03T11:24:04;6.85;;;3.67;;
61393;SDS011;48555;50.952;-0.120;2023-04-03T11:26:35;5.82;;;3.67;;
61393;SDS011;48555;50.952;-0.120;2023-04-03T11:29:06;4.57;;;3.17;;
61393;SDS011;48555;50.952;-0.120;2023-04-03T11:31:41;4.97;;;3.33;;
61393;SDS011;48555;50.952;-0.120;2023-04-03T11:36:55;5.00;;;3.10;;
61393;SDS011;48555;50.952;-0.120;2023-04-03T11:39:26;5.43;;;2.70;;
61393;SDS011;48555;50.952;-0.120;2023-04-03T11:41:55;6.15;;;2.55;;
61393;SDS011;48555;50.952;-0.120;2023-04-03T11:46:58;4.30;;;2.65;;
61393;SDS011;48555;50.952;-0.120;2023-04-03T12:05:57;5.05;;;2.60;;
61393;SDS011;48555;50.952;-0.120;2023-04-03T12:19:04;4.45;;;2.50;;
61393;SDS011;48555;50.952;-0.120;2023-04-03T12:37:34;3.30;;;2.30;;
61393;SDS011;48555;50.952;-0.120;2023-04-03T12:40:16;4.75;;;2.20;;
61393;SDS011;48555;50.952;-0.120;2023-04-03T12:48:37;3.42;;;2.22;;
61393;SDS011;48555;50.952;-0.120;2023-04-03T12:51:14;4.60;;;2.20;;
61393;SDS011;48555;50.952;-0.120;2023-04-03T12:53:44;3.97;;;2.30;;
61393;SDS011;48555;50.952;-0.120;2023-04-03T12:56:27;4.78;;;2.47;;
61393;SDS011;48555;50.952;-0.120;2023-04-03T12:58:55;5.82;;;2.30;;
61393;SDS011;48555;50.952;-0.120;2023-04-03T13:01:37;4.57;;;2.10;;
61393;SDS011;48555;50.952;-0.120;2023-04-03T13:04:02;7.95;;;2.70;;
61393;SDS011;48555;50.952;-0.120;2023-04-03T13:06:50;3.83;;;2.50;;
61393;SDS011;48555;50.952;-0.120;2023-04-03T13:09:36;4.53;;;2.17;;
61393;SDS011;48555;50.952;-0.120;2023-04-03T13:12:08;4.28;;;2.13;;
61393;SDS011;48555;50.952;-0.120;2023-04-03T13:14:37;6.15;;;2.70;;
61393;SDS011;48555;50.952;-0.120;2023-04-03T13:17:15;6.13;;;2.30;;
61393;SDS011;48555;50.952;-0.120;2023-04-03T13:19:42;4.72;;;2.40;;
61393;SDS011;48555;50.952;-0.120;2023-04-03T13:22:23;4.72;;;2.58;;
61393;SDS011;48555;50.952;-0.120;2023-04-03T13:24:58;6.28;;;2.70;;
61393;SDS011;48555;50.952;-0.120;2023-04-03T13:27:26;7.15;;;2.90;;
61393;SDS011;48555;50.952;-0.120;2023-04-03T13:29:56;3.83;;;2.08;;
61393;SDS011;48555;50.952;-0.120;2023-04-03T13:32:25;4.60;;;2.30;;
61393;SDS011;48555;50.952;-0.120;2023-04-03T13:34:53;5.93;;;2.38;;
61393;SDS011;48555;50.952;-0.120;2023-04-03T13:37:27;3.78;;;2.25;;
61393;SDS011;48555;50.952;-0.120;2023-04-03T13:40:03;4.47;;;2.40;;
61393;SDS011;48555;50.952;-0.120;2023-04-03T13:42:32;6.05;;;2.10;;
61393;SDS011;48555;50.952;-0.120;2023-04-03T13:45:16;5.82;;;2.33;;
61393;SDS011;48555;50.952;-0.120;2023-04-03T13:47:51;6.18;;;2.58;;
61393;SDS011;48555;50.952;-0.120;2023-04-03T13:53:03;4.78;;;2.30;;
61393;SDS011;48555;50.952;-0.120;2023-04-03T13:55:37;3.47;;;2.13;;
61393;SDS011;48555;50.952;-0.120;2023-04-03T13:58:36;5.47;;;2.10;;
61393;SDS011;48555;50.952;-0.120;2023-04-03T14:01:17;4.60;;;2.03;;
61393;SDS011;48555;50.952;-0.120;2023-04-03T14:03:55;6.35;;;2.50;;
61393;SDS011;48555;50.952;-0.120;2023-04-03T14:06:24;3.35;;;2.00;;
61393;SDS011;48555;50.952;-0.120;2023-04-03T14:08:49;5.20;;;2.20;;
61393;SDS011;48555;50.952;-0.120;2023-04-03T14:11:33;4.55;;;2.20;;
61393;SDS011;48555;50.952;-0.120;2023-04-03T14:14:00;5.05;;;2.20;;
61393;SDS011;48555;50.952;-0.120;2023-04-03T14:16:30;6.68;;;2.47;;
61393;SDS011;48555;50.952;-0.120;2023-04-03T14:18:57;5.13;;;2.35;;
61393;SDS011;48555;50.952;-0.120;2023-04-03T14:21:23;4.28;;;2.20;;
61393;SDS011;48555;50.952;-0.120;2023-04-03T14:23:48;3.45;;;2.35;;
61393;SDS011;48555;50.952;-0.120;2023-04-03T14:26:16;5.28;;;2.50;;
61393;SDS011;48555;50.952;-0.120;2023-04-03T14:28:44;6.60;;;2.55;;
61393;SDS011;48555;50.952;-0.120;2023-04-03T14:31:11;5.32;;;2.78;;
61393;SDS011;48555;50.952;-0.120;2023-04-03T14:33:37;6.20;;;2.38;;
61393;SDS011;48555;50.952;-0.120;2023-04-03T14:36:22;6.68;;;2.40;;
61393;SDS011;48555;50.952;-0.120;2023-04-03T14:38:50;5.97;;;2.20;;
61393;SDS011;48555;50.952;-0.120;2023-04-03T14:41:17;5.45;;;2.00;;
61393;SDS011;48555;50.952;-0.120;2023-04-03T14:43:45;5.18;;;2.00;;
61393;SDS011;48555;50.952;-0.120;2023-04-03T14:46:12;3.88;;;1.80;;
61393;SDS011;48555;50.952;-0.120;2023-04-03T14:48:40;4.60;;;1.88;;
61393;SDS011;48555;50.952;-0.120;2023-04-03T14:51:05;4.07;;;1.80;;
61393;SDS011;48555;50.952;-0.120;2023-04-03T14:53:30;3.90;;;1.65;;
61393;SDS011;48555;50.952;-0.120;2023-04-03T14:55:57;8.05;;;2.17;;
61393;SDS011;48555;50.952;-0.120;2023-04-03T14:58:23;4.43;;;2.08;;
61393;SDS011;48555;50.952;-0.120;2023-04-03T15:00:48;5.30;;;2.00;;
61393;SDS011;48555;50.952;-0.120;2023-04-03T15:03:17;5.45;;;2.00;;
61393;SDS011;48555;50.952;-0.120;2023-04-03T15:05:45;3.30;;;1.65;;
61393;SDS011;48555;50.952;-0.120;2023-04-03T15:08:16;7.10;;;2.00;;
61393;SDS011;48555;50.952;-0.120;2023-04-03T15:10:44;4.38;;;1.90;;
61393;SDS011;48555;50.952;-0.120;2023-04-03T15:13:10;2.67;;;1.70;;
61393;SDS011;48555;50.952;-0.120;2023-04-03T15:15:37;3.40;;;1.90;;
61393;SDS011;48555;50.952;-0.120;2023-04-03T15:18:02;3.05;;;1.60;;
61393;SDS011;48555;50.952;-0.120;2023-04-03T15:20:28;2.28;;;1.50;;
61393;SDS011;48555;50.952;-0.120;2023-04-03T15:22:55;5.43;;;2.10;;
61393;SDS011;48555;50.952;-0.120;2023-04-03T15:25:25;4.03;;;1.70;;
61393;SDS011;48555;50.952;-0.120;2023-04-03T15:27:51;4.43;;;1.85;;
61393;SDS011;48555;50.952;-0.120;2023-04-03T15:30:18;4.00;;;1.92;;
61393;SDS011;48555;50.952;-0.120;2023-04-03T15:32:44;3.63;;;1.50;;
61393;SDS011;48555;50.952;-0.120;2023-04-03T15:35:10;4.05;;;1.48;;
61393;SDS011;48555;50.952;-0.120;2023-04-03T15:37:36;4.03;;;1.85;;
61393;SDS011;48555;50.952;-0.120;2023-04-03T15:40:02;3.85;;;1.65;;
61393;SDS011;48555;50.952;-0.120;2023-04-03T15:42:29;4.72;;;1.80;;
61393;SDS011;48555;50.952;-0.120;2023-04-03T15:44:54;2.80;;;1.83;;
61393;SDS011;48555;50.952;-0.120;2023-04-03T15:47:20;2.58;;;1.73;;
61393;SDS011;48555;50.952;-0.120;2023-04-03T15:49:45;3.22;;;1.73;;
61393;SDS011;48555;50.952;-0.120;2023-04-03T15:52:11;3.55;;;2.00;;
61393;SDS011;48555;50.952;-0.120;2023-04-03T15:54:36;4.78;;;1.90;;
61393;SDS011;48555;50.952;-0.120;2023-04-03T15:57:01;5.45;;;1.80;;
61393;SDS011;48555;50.952;-0.120;2023-04-03T15:59:27;4.93;;;1.70;;
61393;SDS011;48555;50.952;-0.120;2023-04-03T16:01:54;3.97;;;1.60;;
61393;SDS011;48555;50.952;-0.120;2023-04-03T16:04:19;4.75;;;1.80;;
61393;SDS011;48555;50.952;-0.120;2023-04-03T16:06:45;3.55;;;2.00;;
61393;SDS011;48555;50.952;-0.120;2023-04-03T16:09:11;4.60;;;1.85;;
61393;SDS011;48555;50.952;-0.120;2023-04-03T16:11:36;5.68;;;1.77;;
61393;SDS011;48555;50.952;-0.120;2023-04-03T16:14:05;4.25;;;1.80;;
61393;SDS011;48555;50.952;-0.120;2023-04-03T16:16:31;2.58;;;1.48;;
61393;SDS011;48555;50.952;-0.120;2023-04-03T16:18:56;4.57;;;2.00;;